« 湖畔 霞ケ浦 2014/10/28 tue | トップページ | 入間航空祭【B.I.編】 入間飛行場 2014/11/3 mon »

2014/11/04

入間航空祭【帰投編】 入間飛行場 2014/11/3 mon

晴れの特意日11月3日は、文化の日。そして、入間航空祭。今年も事前の予報がどんどん良くなって晴れました。とりあえず、帰投編から・・

20141103_rjtj_800m9901

ブルーインパルスが終わった頃、上空を東に向かうUS-2が通過した。 

9901 US-2 71ARS I01

20141103_rjtj_801af60081

帰投のトップバッターは、MOJO君

20141103_rjtj_802af96646

同じ横田のスピアは、人力で押されて出発準備

20141103_rjtj_803m8443

館山のSHも引かれて・・

20141103_rjtj_804u123018

百里のア・スコットは押されて・・

20141103_rjtj_805f038809

F15のデモフライトが中止となり、F系では唯一のF-2

20141103_rjtj_806f038809

櫻吹雪の空自60周年記念機

METAR RJTJ 030600Z 35014KT 9999 FEW030 BKN050 18/01 Q1005 RMK 1CU030 5SC050 A2968

20141103_rjtj_807af60081

AF60081 C-12F 459AS MOJO10

20141103_rjtj_808af96646

20141103_rjtj_809af96646

AF96646 U-1N 459AS SPEAR10

20141103_rjtj_810f038809

03-8809 F-2A 3SQ R11

ウギャ、櫻吹雪が・・ おまけにブレてるし

20141103_rjtj_811m8443

8443 SH-60K HS-21 BJ43

20141103_rjtj_812t015060

01-5060 T-400 41FTS R60

キテイちゅんがいたかは、確認できていない

20141103_rjtj_813u123018

12-3018 U-125A HYAKURI-ARS A18

20141103_rjtj_814h084571

20141103_rjtj_815h084571

08-4571 UH-60J HYAKURI-ARS H71

20141103_rjtj_816jg31295

JG31295 OH-6D I

20141103_rjtj_817jg73463

JG73463 AH-1S IVATH

20141103_rjtj_818jg32628

JG32628 OH-1 IVTAH

20141103_rjtj_819jg41926

JG41926 UH-1J EH

METAR RJTJ 030716Z 34013KT 9999 FEW030 BKN060 16/01 Q1006 RMK 1CU030 5SC060 A2973

基地を離脱して、狭山市駅へ・・ 駅前から夕日が美しい

20141103_rjtj_820m5071

5071 P-3C VP-3 SE71

20141103_rjtj_821c051085

05-1085 C-130H 401SQ C85

綺麗な夕焼けに西に向かうほうきが、茜空に多数見ることができた。

|

« 湖畔 霞ケ浦 2014/10/28 tue | トップページ | 入間航空祭【B.I.編】 入間飛行場 2014/11/3 mon »

入間飛行場」カテゴリの記事

コメント

コメントを書く



(ウェブ上には掲載しません)


コメントは記事投稿者が公開するまで表示されません。



トラックバック


この記事へのトラックバック一覧です: 入間航空祭【帰投編】 入間飛行場 2014/11/3 mon:

« 湖畔 霞ケ浦 2014/10/28 tue | トップページ | 入間航空祭【B.I.編】 入間飛行場 2014/11/3 mon »